Time;durP1;ratioP1;P1;durP2;ratioP2;P2;SDS_P1;SDS_P2;PMS_P1;PMS_P2;Temp;Humidity;BMP_temperature;BMP_pressure;BME280_temperature;BME280_humidity;BME280_pressure;Samples;Min_cycle;Max_cycle;Signal;HPM_P1;HPM_P2
2024/03/02 05:31:22;;;;;;;35.00;19.20;;;;;;;3.04;100.00;101374.98;106513;1254;72740;-86
2024/03/02 05:34:02;;;;;;;28.30;16.70;;;;;;;3.18;100.00;101375.86;106503;1251;60525;-87
2024/03/02 05:36:42;;;;;;;29.60;16.10;;;;;;;3.30;100.00;101373.95;106458;1258;60305;-86
2024/03/02 05:39:16;;;;;;;27.90;16.00;;;;;;;3.37;100.00;101369.38;106456;1256;72657;-88
2024/03/02 05:41:50;;;;;;;29.10;16.40;;;;;;;3.49;100.00;101370.40;107186;1253;69015;-88
2024/03/02 05:44:30;;;;;;;25.60;14.90;;;;;;;3.47;100.00;101371.55;106489;1253;72919;-88
2024/03/02 05:47:11;;;;;;;30.20;16.70;;;;;;;3.53;100.00;101369.67;106506;1253;60553;-87
2024/03/02 05:49:44;;;;;;;29.10;15.10;;;;;;;3.64;100.00;101368.91;106520;1253;60552;-86
2024/03/02 05:52:18;;;;;;;23.90;13.50;;;;;;;3.64;100.00;101367.25;106554;1252;73853;-85
2024/03/02 05:54:58;;;;;;;27.80;15.30;;;;;;;3.80;100.00;101366.77;106604;1253;67672;-86
2024/03/02 05:57:49;;;;;;;26.00;15.00;;;;;;;3.91;100.00;101365.44;107030;1258;72625;-87
2024/03/02 06:00:31;;;;;;;26.30;14.40;;;;;;;4.03;100.00;101366.22;106345;1256;60425;-88
2024/03/02 06:02:59;;;;;;;27.60;14.60;;;;;;;4.04;100.00;101367.48;106708;1251;60449;-87
2024/03/02 06:05:33;;;;;;;27.60;14.80;;;;;;;4.11;100.00;101360.25;109116;1251;73905;-87
2024/03/02 06:08:07;;;;;;;26.60;13.90;;;;;;;4.17;100.00;101355.11;106540;1253;67767;-86
2024/03/02 06:10:41;;;;;;;27.60;14.30;;;;;;;4.29;100.00;101362.41;106867;1259;72510;-88
2024/03/02 06:13:09;;;;;;;24.80;13.90;;;;;;;4.29;100.00;101362.05;106841;1256;60553;-87
2024/03/02 06:15:49;;;;;;;27.40;14.70;;;;;;;4.37;100.00;101357.39;106578;1251;60421;-86
2024/03/02 06:18:29;;;;;;;31.70;15.80;;;;;;;4.37;100.00;101357.77;106483;1256;73915;-87
2024/03/02 06:20:57;;;;;;;25.20;14.10;;;;;;;4.37;100.00;101354.27;106490;1256;67876;-85
2024/03/02 06:23:32;;;;;;;29.20;13.60;;;;;;;4.43;100.00;101357.56;106784;1257;71763;-86
2024/03/02 06:26:06;;;;;;;27.00;13.70;;;;;;;4.57;100.00;101354.48;106411;1259;60449;-89
2024/03/02 06:28:45;;;;;;;25.60;15.00;;;;;;;4.67;100.00;101355.27;106613;1257;60795;-87
2024/03/02 06:31:20;;;;;;;28.70;15.80;;;;;;;4.67;100.00;101351.54;106930;1251;73974;-86
2024/03/02 06:33:48;;;;;;;27.30;14.70;;;;;;;4.62;100.00;101350.04;106512;1253;66415;-87
2024/03/02 06:36:28;;;;;;;31.50;15.30;;;;;;;4.69;100.00;101353.12;106783;1253;71411;-86
2024/03/02 06:39:08;;;;;;;26.70;14.90;;;;;;;4.69;100.00;101348.29;106580;1259;60559;-86
2024/03/02 06:41:37;;;;;;;23.20;12.40;;;;;;;4.66;100.00;101343.84;106649;1251;60470;-85
2024/03/02 06:44:15;;;;;;;27.20;13.20;;;;;;;4.75;100.00;101340.79;106517;1254;73626;-86
2024/03/02 06:46:49;;;;;;;28.50;14.00;;;;;;;4.75;100.00;101338.36;106554;1251;68478;-86
2024/03/02 06:49:23;;;;;;;24.80;13.90;;;;;;;4.68;100.00;101340.92;106361;1258;71938;-86
2024/03/02 06:51:56;;;;;;;25.60;13.30;;;;;;;4.77;100.00;101337.40;107067;1257;60460;-86
2024/03/02 06:54:25;;;;;;;27.20;14.30;;;;;;;4.77;100.00;101337.48;106458;1254;60426;-86
2024/03/02 06:57:04;;;;;;;25.50;14.50;;;;;;;4.71;100.00;101337.48;106378;1254;73068;-86
2024/03/02 06:59:44;;;;;;;25.90;14.10;;;;;;;4.74;100.00;101329.34;106424;1254;68342;-86
2024/03/02 07:02:18;;;;;;;28.90;14.10;;;;;;;5.01;100.00;101331.77;106528;1254;74666;-87
2024/03/02 07:05:00;;;;;;;48.90;22.40;;;;;;;5.10;100.00;101331.27;106891;1256;61502;-86
2024/03/02 07:07:35;;;;;;;90.00;37.70;;;;;;;5.18;100.00;101337.95;106562;1254;62316;-86
2024/03/02 07:10:04;;;;;;;44.00;21.10;;;;;;;5.32;100.00;101332.91;106623;1257;73070;-87
2024/03/02 07:12:39;;;;;;;27.40;15.30;;;;;;;5.48;100.00;101328.25;106614;1255;68731;-88
2024/03/02 07:17:47;;;;;;;27.20;15.00;;;;;;;5.86;100.00;101328.26;106582;1256;60362;-88
2024/03/02 07:20:27;;;;;;;28.30;14.40;;;;;;;5.97;100.00;101327.65;106445;1254;60487;-88
2024/03/02 07:23:02;;;;;;;26.50;13.90;;;;;;;6.01;100.00;101327.43;106623;1256;73907;-85
2024/03/02 07:25:42;;;;;;;28.10;15.20;;;;;;;6.04;100.00;101329.62;106538;1256;68718;-85
2024/03/02 07:28:24;;;;;;;;;;;;;;;6.16;100.00;101332.39;106463;1256;72663;-89
2024/03/02 07:31:01;;;;;;;26.70;15.90;;;;;;;6.16;100.00;101326.30;106419;1258;60413;-88
2024/03/02 07:33:41;;;;;;;27.10;14.10;;;;;;;6.24;100.00;101326.11;106393;1256;60572;-90
2024/03/02 07:36:15;;;;;;;26.90;14.90;;;;;;;6.37;100.00;101326.73;106329;1256;73316;-87
2024/03/02 07:38:56;;;;;;;25.90;13.90;;;;;;;6.50;100.00;101326.38;106312;1256;68474;-89
2024/03/02 07:41:36;;;;;;;26.80;13.90;;;;;;;6.47;99.78;101322.70;106413;1253;72808;-87
2024/03/02 07:44:04;;;;;;;28.80;15.00;;;;;;;6.54;99.88;101324.14;106455;1259;60579;-86
2024/03/02 07:46:44;;;;;;;29.20;15.40;;;;;;;6.58;99.62;101326.81;106443;1257;60520;-86
2024/03/02 07:49:27;;;;;;;25.40;13.70;;;;;;;6.63;99.09;101322.01;106733;1254;72629;-89
2024/03/02 07:52:01;;;;;;;29.40;15.40;;;;;;;6.67;97.97;101322.95;106533;1259;68473;-86
2024/03/02 07:54:41;;;;;;;31.80;15.60;;;;;;;6.72;96.90;101321.13;106386;1256;72763;-89
2024/03/02 07:57:14;;;;;;;24.30;14.40;;;;;;;6.70;97.01;101321.64;108666;1256;60557;-88
2024/03/02 07:59:52;;;;;;;26.50;14.90;;;;;;;6.79;97.37;101317.13;106828;1253;60516;-85
2024/03/02 08:02:32;;;;;;;27.10;14.70;;;;;;;6.80;99.10;101317.23;108071;1254;71339;-89
2024/03/02 08:05:06;;;;;;;29.20;14.20;;;;;;;6.97;98.01;101315.30;107909;1253;67134;-89
2024/03/02 08:07:46;;;;;;;26.50;14.50;;;;;;;7.01;94.71;101316.60;106967;1257;71192;-88
2024/03/02 08:10:26;;;;;;;26.60;14.20;;;;;;;7.00;94.22;101318.97;106463;1254;60467;-89
2024/03/02 08:13:00;;;;;;;26.60;13.80;;;;;;;7.01;95.25;101317.13;106559;1259;60370;-87
2024/03/02 08:15:40;;;;;;;22.20;13.30;;;;;;;7.05;94.86;101317.29;106491;1264;73144;-85
2024/03/02 08:18:20;;;;;;;23.70;13.10;;;;;;;7.18;91.74;101310.84;106569;1258;68482;-88
2024/03/02 08:20:54;;;;;;;25.20;12.50;;;;;;;7.13;92.09;101314.77;106535;1253;71493;-89
2024/03/02 08:23:34;;;;;;;27.00;13.50;;;;;;;7.15;92.84;101317.25;106499;1255;60521;-85
2024/03/02 08:26:08;;;;;;;27.80;13.90;;;;;;;7.31;93.81;101312.19;106888;1253;60549;-86
2024/03/02 08:28:47;;;;;;;27.30;14.70;;;;;;;7.49;92.83;101314.30;106577;1251;73842;-84
2024/03/02 08:31:26;;;;;;;29.50;13.40;;;;;;;7.69;91.40;101311.91;106803;1255;68761;-86
2024/03/02 08:34:00;;;;;;;24.40;13.20;;;;;;;7.89;89.14;101309.48;106621;1253;72669;-84
2024/03/02 08:36:41;;;;;;;33.60;14.00;;;;;;;8.02;88.26;101307.91;106422;1259;60628;-86
2024/03/02 08:39:21;;;;;;;25.70;13.50;;;;;;;8.20;87.98;101300.57;106657;1257;60384;-83
2024/03/02 08:41:55;;;;;;;26.20;13.50;;;;;;;8.36;87.17;101299.92;106553;1257;73882;-84
2024/03/02 08:44:35;;;;;;;25.80;13.90;;;;;;;8.45;86.73;101304.90;106486;1259;66993;-83
2024/03/02 08:47:15;;;;;;;25.20;12.70;;;;;;;8.61;84.10;101304.09;106552;1257;72662;-86
2024/03/02 08:49:48;;;;;;;27.00;13.00;;;;;;;8.75;82.72;101302.75;106523;1254;60557;-87
2024/03/02 08:52:29;;;;;;;26.00;13.50;;;;;;;8.90;80.36;101298.48;106497;1257;60563;-87
2024/03/02 08:55:03;;;;;;;25.60;13.80;;;;;;;8.98;78.14;101298.66;106539;1256;73829;-86
2024/03/02 08:57:43;;;;;;;22.10;12.20;;;;;;;9.01;76.97;101301.61;107782;1252;67257;-87
2024/03/02 09:00:23;;;;;;;24.30;11.40;;;;;;;8.94;76.25;101297.41;106815;1254;72513;-83
2024/03/02 09:02:57;;;;;;;19.90;10.70;;;;;;;8.95;76.02;101295.93;106642;1257;60595;-84
2024/03/02 09:05:37;;;;;;;21.30;10.80;;;;;;;9.04;76.21;101293.52;106754;1257;60300;-83
2024/03/02 09:08:17;;;;;;;18.30;9.70;;;;;;;9.12;75.36;101293.59;106750;1257;73859;-82
2024/03/02 09:10:51;;;;;;;18.60;9.70;;;;;;;9.26;73.20;101286.11;106476;1258;68353;-85
2024/03/02 09:13:31;;;;;;;20.60;10.90;;;;;;;9.41;72.14;101284.48;106605;1256;70855;-85
2024/03/02 09:16:05;;;;;;;22.40;9.80;;;;;;;9.52;71.44;101282.95;106482;1257;61338;-85
2024/03/02 09:18:39;;;;;;;23.90;10.70;;;;;;;9.57;70.80;101278.64;106348;1254;61361;-86
2024/03/02 09:21:19;;;;;;;19.40;9.20;;;;;;;9.67;70.47;101278.61;106488;1257;72622;-86
2024/03/02 09:23:59;;;;;;;20.90;9.70;;;;;;;9.76;69.20;101269.77;107451;1256;67236;-84
2024/03/02 09:26:39;;;;;;;17.20;9.00;;;;;;;9.86;69.80;101273.28;106562;1255;72839;-85
2024/03/02 09:29:20;;;;;;;21.00;10.50;;;;;;;10.05;69.34;101267.21;106502;1257;60519;-84
2024/03/02 17:32:48;;;;;;;23.90;10.50;;;;;;;8.73;78.45;101070.13;106385;1251;61657;-88
2024/03/02 17:35:31;;;;;;;22.70;10.30;;;;;;;8.73;78.56;101070.55;106524;1257;61607;-88
2024/03/02 17:38:11;;;;;;;16.90;8.70;;;;;;;8.74;78.90;101068.23;106736;1253;77420;-87
2024/03/02 17:40:51;;;;;;;22.00;8.70;;;;;;;8.61;80.02;101068.05;106506;1251;70945;-88
2024/03/02 17:43:31;;;;;;;21.00;10.30;;;;;;;8.51;81.48;101066.61;106377;1253;73305;-88
2024/03/02 17:46:12;;;;;;;19.20;9.20;;;;;;;8.49;81.85;101062.65;107766;1251;61312;-88
2024/03/02 17:48:52;;;;;;;22.80;10.30;;;;;;;8.44;82.66;101062.69;106410;1253;62345;-88
2024/03/02 17:51:32;;;;;;;26.00;10.20;;;;;;;8.56;81.16;101062.15;106699;1251;75714;-87
2024/03/02 17:54:12;;;;;;;28.90;12.30;;;;;;;8.46;82.29;101062.83;106514;1253;70487;-88
2024/03/02 17:56:52;;;;;;;28.60;12.30;;;;;;;8.38;83.71;101067.05;106516;1253;76305;-86
2024/03/02 17:59:32;;;;;;;32.20;14.30;;;;;;;8.31;85.12;101061.55;106220;1257;63143;-87
2024/03/02 18:02:12;;;;;;;34.60;16.50;;;;;;;8.30;85.58;101062.73;106725;1252;61312;-87
2024/03/02 18:04:52;;;;;;;35.50;16.70;;;;;;;8.28;85.84;101060.19;106479;1256;76740;-88
2024/03/02 18:07:34;;;;;;;37.80;17.50;;;;;;;8.25;86.41;101061.06;106560;1251;70120;-87
2024/03/02 18:10:14;;;;;;;31.40;14.50;;;;;;;8.14;87.09;101056.61;106487;1254;75409;-87
2024/03/02 18:12:55;;;;;;;25.50;13.00;;;;;;;8.12;88.09;101059.79;106527;1252;61540;-87
2024/03/02 18:15:35;;;;;;;19.30;9.50;;;;;;;8.16;87.63;101057.77;106578;1253;61220;-86
2024/03/02 18:18:15;;;;;;;25.60;9.30;;;;;;;8.18;86.79;101061.13;106474;1256;75917;-86
2024/03/02 18:20:55;;;;;;;25.40;9.60;;;;;;;8.02;88.13;101062.90;106445;1253;69568;-85
2024/03/02 18:23:35;;;;;;;22.80;9.10;;;;;;;7.94;89.01;101065.43;106484;1253;72461;-86
2024/03/02 18:26:15;;;;;;;20.10;8.30;;;;;;;7.92;89.60;101065.16;106558;1253;62801;-86
2024/03/02 18:28:58;;;;;;;21.70;9.00;;;;;;;7.88;91.98;101062.86;106370;1253;61457;-87
2024/03/02 18:31:38;;;;;;;22.90;7.80;;;;;;;7.84;92.70;101061.88;106502;1251;76304;-84
2024/03/02 18:34:19;;;;;;;17.90;7.60;;;;;;;7.88;92.73;101063.86;106425;1256;71068;-83
2024/03/02 18:36:59;;;;;;;17.20;7.50;;;;;;;7.92;90.68;101062.73;106498;1256;74902;-85
2024/03/02 18:39:39;;;;;;;14.60;6.90;;;;;;;8.00;88.59;101062.74;106481;1254;61366;-85
2024/03/02 18:42:19;;;;;;;19.10;7.60;;;;;;;7.95;88.12;101063.10;106535;1256;61302;-87
2024/03/02 18:44:59;;;;;;;14.00;6.70;;;;;;;7.92;87.19;101061.95;106547;1251;76061;-85
2024/03/02 18:47:39;;;;;;;13.70;6.80;;;;;;;7.88;85.08;101058.41;106544;1255;70519;-84
2024/03/02 18:50:19;;;;;;;14.40;6.50;;;;;;;7.78;83.86;101059.77;106581;1253;73567;-87
2024/03/02 18:52:59;;;;;;;12.90;5.80;;;;;;;7.64;84.15;101060.62;106456;1257;61215;-84
2024/03/02 18:55:33;;;;;;;16.30;7.30;;;;;;;7.59;83.62;101059.12;106463;1256;61942;-85
2024/03/02 18:58:07;;;;;;;21.00;6.40;;;;;;;7.60;83.32;101056.84;106538;1253;76961;-84
2024/03/02 19:00:42;;;;;;;14.30;6.80;;;;;;;7.50;83.93;101056.27;106655;1251;68983;-87
2024/03/02 19:03:16;;;;;;;12.60;5.80;;;;;;;7.51;83.98;101054.27;106843;1253;73906;-86
2024/03/02 19:05:50;;;;;;;13.20;5.50;;;;;;;7.50;83.80;101055.46;108166;1253;61386;-86
2024/03/02 19:08:24;;;;;;;19.60;6.40;;;;;;;7.34;84.77;101054.41;107102;1256;61237;-85
2024/03/02 19:10:59;;;;;;;15.50;6.30;;;;;;;7.25;85.71;101055.42;106891;1251;76720;-86
2024/03/02 19:13:33;;;;;;;16.70;6.40;;;;;;;7.27;85.51;101052.26;106797;1252;69509;-87
2024/03/02 19:16:13;;;;;;;13.00;5.70;;;;;;;7.25;85.64;101050.20;106776;1257;74611;-85
2024/03/02 19:18:48;;;;;;;12.90;5.30;;;;;;;7.19;86.06;101047.54;107145;1252;61262;-84
2024/03/02 19:21:22;;;;;;;13.70;6.60;;;;;;;7.13;85.80;101049.86;106629;1253;61284;-84
2024/03/02 19:23:55;;;;;;;14.30;6.20;;;;;;;7.02;85.71;101050.31;107618;1251;76803;-85
2024/03/02 19:26:29;;;;;;;14.00;6.20;;;;;;;6.88;86.49;101048.38;106472;1251;69172;-85
2024/03/02 19:29:03;;;;;;;15.80;6.60;;;;;;;6.83;86.74;101048.08;106510;1251;73622;-84
2024/03/02 19:31:37;;;;;;;13.00;6.00;;;;;;;6.76;86.86;101047.27;106825;1256;61323;-87
2024/03/02 19:34:11;;;;;;;11.20;5.80;;;;;;;6.68;86.94;101045.86;106475;1256;62292;-84
2024/03/02 19:36:45;;;;;;;14.40;6.40;;;;;;;6.66;87.05;101045.15;106572;1252;75582;-86
2024/03/02 19:39:26;;;;;;;14.60;6.70;;;;;;;6.61;86.18;101047.80;106463;1251;69316;-83
2024/03/02 19:42:01;;;;;;;12.80;6.70;;;;;;;6.57;86.28;101042.48;106545;1256;74196;-86
2024/03/02 19:44:34;;;;;;;11.60;6.40;;;;;;;6.54;85.42;101047.60;106461;1253;63649;-82
2024/03/02 19:47:10;;;;;;;11.90;6.70;;;;;;;6.45;85.07;101049.92;106533;1253;61305;-87
2024/03/02 19:49:48;;;;;;;14.50;6.70;;;;;;;6.36;85.33;101051.67;106534;1253;78469;-83
2024/03/02 19:52:22;;;;;;;15.20;8.00;;;;;;;6.24;86.53;101055.83;106295;1253;70522;-85
2024/03/02 19:55:01;;;;;;;15.10;7.30;;;;;;;6.02;88.56;101056.84;106544;1255;73288;-83
2024/03/02 19:57:40;;;;;;;12.40;6.30;;;;;;;5.91;89.56;101058.11;106944;1253;61151;-84
2024/03/02 20:00:15;;;;;;;17.50;7.80;;;;;;;5.81;90.16;101058.46;106611;1256;61286;-87
2024/03/02 20:02:49;;;;;;;17.10;8.10;;;;;;;5.70;91.35;101063.27;107189;1251;76963;-83
2024/03/02 20:05:24;;;;;;;16.10;8.60;;;;;;;5.61;90.90;101062.11;106958;1256;70650;-81
2024/03/02 20:07:58;;;;;;;13.60;7.80;;;;;;;5.47;90.71;101066.15;106733;1256;74299;-84
2024/03/02 20:10:32;;;;;;;14.00;7.90;;;;;;;5.28;90.78;101065.69;106713;1256;61447;-88
2024/03/02 20:13:07;;;;;;;41.30;19.00;;;;;;;5.22;92.13;101066.81;106689;1256;61106;-86
2024/03/02 20:15:41;;;;;;;23.80;12.00;;;;;;;5.19;91.67;101065.95;106686;1253;75368;-84
2024/03/02 20:18:17;;;;;;;19.10;8.80;;;;;;;5.09;92.12;101064.84;107713;1251;69725;-86
2024/03/02 20:20:51;;;;;;;17.40;9.40;;;;;;;4.96;94.54;101062.59;106615;1254;74201;-85
2024/03/02 20:23:26;;;;;;;16.20;8.70;;;;;;;4.90;96.19;101058.77;106655;1253;61264;-83
2024/03/02 20:25:59;;;;;;;17.30;8.10;;;;;;;4.94;97.67;101057.27;106653;1253;63612;-87
2024/03/02 20:28:34;;;;;;;20.60;9.30;;;;;;;5.00;97.64;101062.10;106690;1253;77220;-89
2024/03/02 20:31:09;;;;;;;20.60;8.90;;;;;;;5.07;98.62;101058.02;107028;1253;70906;-87
2024/03/02 20:33:37;;;;;;;18.50;10.40;;;;;;;5.09;98.65;101060.94;106512;1257;74652;-86
2024/03/02 20:36:13;;;;;;;17.60;10.10;;;;;;;5.11;99.45;101057.85;106565;1258;62076;-84
2024/03/02 20:38:48;;;;;;;18.00;9.70;;;;;;;5.17;99.18;101057.64;107429;1256;61231;-88
2024/03/02 20:41:22;;;;;;;23.80;10.00;;;;;;;5.11;99.89;101054.92;106495;1253;77504;-87
2024/03/02 20:43:56;;;;;;;17.50;10.00;;;;;;;5.14;99.65;101054.14;106686;1253;70034;-84
2024/03/02 20:46:30;;;;;;;14.40;8.50;;;;;;;5.22;99.63;101053.90;106497;1253;74453;-85
2024/03/02 20:49:04;;;;;;;16.10;9.20;;;;;;;5.16;99.59;101050.02;106575;1255;61379;-87
2024/03/02 20:51:38;;;;;;;20.00;9.80;;;;;;;5.10;99.37;101048.93;106560;1258;61304;-88
2024/03/02 20:54:06;;;;;;;22.40;9.40;;;;;;;5.04;99.94;101053.42;106550;1253;76551;-87
2024/03/02 20:56:43;;;;;;;16.00;9.50;;;;;;;4.88;100.00;101050.67;106378;1253;70682;-85
2024/03/02 20:59:17;;;;;;;20.80;10.70;;;;;;;4.79;100.00;101048.90;107112;1257;75257;-87
2024/03/02 21:01:51;;;;;;;18.00;8.90;;;;;;;4.75;100.00;101051.90;106323;1253;62520;-87
2024/03/02 21:04:19;;;;;;;22.90;10.70;;;;;;;4.68;100.00;101044.29;106518;1253;61250;-89
2024/03/02 21:06:53;;;;;;;20.80;9.80;;;;;;;4.67;100.00;101044.36;106746;1253;74682;-87
2024/03/02 21:09:27;;;;;;;18.00;9.40;;;;;;;4.66;100.00;101042.27;106502;1252;72406;-88
2024/03/02 21:11:55;;;;;;;20.00;10.00;;;;;;;4.50;100.00;101034.98;106370;1256;74784;-87
2024/03/02 21:14:29;;;;;;;18.60;10.90;;;;;;;4.46;100.00;101033.77;107141;1253;61346;-87
2024/03/02 21:17:04;;;;;;;19.80;11.00;;;;;;;4.39;100.00;101032.52;106520;1256;61192;-86
2024/03/02 21:19:38;;;;;;;18.80;9.80;;;;;;;4.22;100.00;101039.52;106422;1253;74646;-85
2024/03/02 21:22:06;;;;;;;20.30;9.70;;;;;;;4.13;100.00;101036.80;106274;1253;71682;-86
2024/03/02 21:24:45;;;;;;;22.70;10.80;;;;;;;4.06;100.00;101038.45;106423;1256;75251;-87
2024/03/02 21:27:18;;;;;;;20.80;10.60;;;;;;;4.01;100.00;101040.12;106354;1258;61327;-88
2024/03/02 21:29:53;;;;;;;21.50;11.40;;;;;;;4.07;100.00;101034.99;107120;1253;61237;-88
